PWSweather.com
Personal Weather Stations
Station Observations

OlomoucCZ

Lat: 49.5936202181, Lon: 17.2276005149

Elevation: 752

Station Type: Davis Vantage Pro 2 Activ

http://infopocasi-olomouc.cz

Latest ConditionsUpdated 4:00:01 PM GMT+01:01 Wednesday, Oct 17, 2018
Currently Today's Max Today's Min Today's Average
Temperature 64.9°F18.3°C 65.3°F18.5°C 48.6°F9.2°C 56.0°F13.3°C
Dew Point 49.3°F9.6°C 50.2°F10.1°C 44.6°F7.0°C 46.6°F8.1°C
Winds 5.8 mph E9.3 kmh E 10.4 mph -16.7 kmh - - 3.8 mph 6.1 kmh
Wind Gusts 10.4 mph16.7 kmh 13.8 mph22.2 kmh - -
Humidity 57% 87% 53% 72%
Pressure 30.08 in1018.6 mb 30.13 in1020.3 mb 30.08 in1018.6 mb -
Hour Temp Dew Point Humidity Winds Wind Gusts Pressure Precip Precip Rate Daily Precip Total
04:00 PM 64.9°F18.3°C 49.3°F9.6°C 57% 5.8 mph E9.3 kmh E 10.4 mph16.7 kmh 30.08 in1018.6 mb - 0.00 in0.0 mm 0.00 in0.0 mm
03:30 PM 64.9°F18.3°C 49.8°F9.9°C 58% 8.1 mph SE13.0 kmh SE 11.5 mph18.5 kmh 30.08 in1018.6 mb - 0.00 in0.0 mm 0.00 in0.0 mm
03:00 PM 64.9°F18.3°C 50.2°F10.1°C 59% 3.5 mph E5.6 kmh E 5.8 mph9.3 kmh 30.08 in1018.6 mb - 0.00 in0.0 mm 0.00 in0.0 mm
02:30 PM 64.6°F18.1°C 50.0°F10.0°C 59% 6.9 mph SE11.1 kmh SE 11.5 mph18.5 kmh 30.09 in1019.0 mb - 0.00 in0.0 mm 0.00 in0.0 mm
02:00 PM 64.9°F18.3°C 49.8°F9.9°C 58% 6.9 mph ESE11.1 kmh ESE 11.5 mph18.5 kmh 30.09 in1019.0 mb - 0.00 in0.0 mm 0.00 in0.0 mm
01:30 PM 64.9°F18.3°C 49.8°F9.9°C 58% 8.1 mph SE13.0 kmh SE 11.5 mph18.5 kmh 30.10 in1019.3 mb - 0.00 in0.0 mm 0.00 in0.0 mm
01:00 PM 65.3°F18.5°C 49.2°F9.6°C 56% 10.4 mph ESE16.7 kmh ESE 13.8 mph22.2 kmh 30.10 in1019.3 mb - 0.00 in0.0 mm 0.00 in0.0 mm
12:30 PM 64.6°F18.1°C 48.1°F8.9°C 55% 4.6 mph SE7.4 kmh SE 8.1 mph13.0 kmh 30.10 in1019.3 mb - 0.00 in0.0 mm 0.00 in0.0 mm
12:00 PM 64.0°F17.8°C 47.5°F8.6°C 55% 9.2 mph ESE14.8 kmh ESE 11.5 mph18.5 kmh 30.11 in1019.6 mb - 0.00 in0.0 mm 0.00 in0.0 mm
11:30 AM 64.4°F18.0°C 47.4°F8.6°C 54% 8.1 mph ESE13.0 kmh ESE 13.8 mph22.2 kmh 30.12 in1020.0 mb - 0.00 in0.0 mm 0.00 in0.0 mm
11:00 AM 63.4°F17.4°C 46.0°F7.8°C 53% 9.2 mph SE14.8 kmh SE 11.5 mph18.5 kmh 30.13 in1020.3 mb - 0.00 in0.0 mm 0.00 in0.0 mm
10:30 AM 63.4°F17.4°C 46.0°F7.8°C 53% 6.9 mph E11.1 kmh E 10.4 mph16.7 kmh 30.13 in1020.3 mb - 0.00 in0.0 mm 0.00 in0.0 mm
10:00 AM 61.4°F16.3°C 47.8°F8.8°C 61% 1.2 mph NW1.9 kmh NW 2.3 mph3.7 kmh 30.13 in1020.3 mb - 0.00 in0.0 mm 0.00 in0.0 mm
09:30 AM 58.2°F14.6°C 48.5°F9.2°C 70% 1.2 mph NW1.9 kmh NW 2.3 mph3.7 kmh 30.12 in1020.0 mb - 0.00 in0.0 mm 0.00 in0.0 mm
09:00 AM 54.6°F12.6°C 47.2°F8.4°C 76% 1.2 mph NW1.9 kmh NW 2.3 mph3.7 kmh 30.13 in1020.3 mb - 0.00 in0.0 mm 0.00 in0.0 mm
08:30 AM 53.1°F11.7°C 46.1°F7.8°C 77% 3.5 mph NW5.6 kmh NW 3.5 mph5.6 kmh 30.13 in1020.3 mb - 0.00 in0.0 mm 0.00 in0.0 mm
08:00 AM 52.0°F11.1°C 45.7°F7.6°C 79% 2.3 mph NW3.7 kmh NW 2.3 mph3.7 kmh 30.13 in1020.3 mb - 0.00 in0.0 mm 0.00 in0.0 mm
07:30 AM 49.8°F9.9°C 45.5°F7.5°C 85% 1.2 mph NW1.9 kmh NW 2.3 mph3.7 kmh 30.12 in1020.0 mb - 0.00 in0.0 mm 0.00 in0.0 mm
07:00 AM 48.9°F9.4°C 44.9°F7.2°C 86% 1.2 mph NW1.9 kmh NW 3.5 mph5.6 kmh 30.13 in1020.3 mb - 0.00 in0.0 mm 0.00 in0.0 mm
06:30 AM 48.7°F9.3°C 44.7°F7.1°C 86% 1.2 mph NW1.9 kmh NW 3.5 mph5.6 kmh 30.13 in1020.3 mb - 0.00 in0.0 mm 0.00 in0.0 mm
06:00 AM 48.9°F9.4°C 44.6°F7.0°C 85% 1.2 mph WNW1.9 kmh WNW 2.3 mph3.7 kmh 30.12 in1020.0 mb - 0.00 in0.0 mm 0.00 in0.0 mm
05:30 AM 49.4°F9.7°C 44.8°F7.1°C 84% 2.3 mph WNW3.7 kmh WNW 3.5 mph5.6 kmh 30.12 in1020.0 mb - 0.00 in0.0 mm 0.00 in0.0 mm
05:00 AM 49.9°F9.9°C 45.0°F7.2°C 83% 1.2 mph W1.9 kmh W 3.5 mph5.6 kmh 30.11 in1019.6 mb - 0.00 in0.0 mm 0.00 in0.0 mm
04:30 AM 49.9°F9.9°C 44.9°F7.2°C 83% 2.3 mph W3.7 kmh W 2.3 mph3.7 kmh 30.11 in1019.6 mb - 0.00 in0.0 mm 0.00 in0.0 mm
04:00 AM 50.1°F10.1°C 45.4°F7.4°C 84% 1.2 mph W1.9 kmh W 3.5 mph5.6 kmh 30.12 in1020.0 mb - 0.00 in0.0 mm 0.00 in0.0 mm
03:30 AM 50.2°F10.1°C 45.2°F7.3°C 83% 2.3 mph SW3.7 kmh SW 3.5 mph5.6 kmh 30.12 in1020.0 mb - 0.00 in0.0 mm 0.00 in0.0 mm
03:00 AM 50.4°F10.2°C 45.4°F7.4°C 83% 1.2 mph SW1.9 kmh SW 3.5 mph5.6 kmh 30.12 in1020.0 mb - 0.00 in0.0 mm 0.00 in0.0 mm
02:30 AM 50.3°F10.2°C 45.3°F7.4°C 83% 1.2 mph SW1.9 kmh SW 3.5 mph5.6 kmh 30.12 in1020.0 mb - 0.00 in0.0 mm 0.00 in0.0 mm
02:00 AM 49.8°F9.9°C 45.5°F7.5°C 85% 2.3 mph SW3.7 kmh SW 3.5 mph5.6 kmh 30.12 in1020.0 mb - 0.00 in0.0 mm 0.00 in0.0 mm
01:30 AM 49.3°F9.6°C 44.6°F7.0°C 84% 2.3 mph SW3.7 kmh SW 3.5 mph5.6 kmh 30.12 in1020.0 mb - 0.00 in0.0 mm 0.00 in0.0 mm
01:00 AM 49.3°F9.6°C 44.7°F7.1°C 84% 2.3 mph SW3.7 kmh SW 3.5 mph5.6 kmh 30.12 in1020.0 mb - 0.00 in0.0 mm 0.00 in0.0 mm
12:30 AM 49.5°F9.7°C 45.2°F7.3°C 85% 1.2 mph SSW1.9 kmh SSW 2.3 mph3.7 kmh 30.13 in1020.3 mb - 0.00 in0.0 mm 0.00 in0.0 mm
12:00 AM 48.6°F9.2°C 44.9°F7.2°C 87% 2.3 mph S3.7 kmh S 3.5 mph5.6 kmh 30.13 in1020.3 mb - 0.00 in0.0 mm 0.00 in0.0 mm